createdAt,value
2023-09-12T00:00:14.259Z,15.68
2023-09-12T00:03:23.215Z,13.48
2023-09-12T00:06:27.229Z,19.70
2023-09-12T00:09:31.428Z,15.70
2023-09-12T00:12:35.395Z,16.55
2023-09-12T00:15:40.097Z,15.23
2023-09-12T00:18:44.625Z,17.30
2023-09-12T00:21:48.566Z,16.95
2023-09-12T00:24:52.638Z,16.30
2023-09-12T00:27:56.678Z,16.33
2023-09-12T00:31:00.581Z,19.33
2023-09-12T00:34:04.436Z,16.00
2023-09-12T00:37:08.278Z,12.82
2023-09-12T00:40:12.237Z,14.40
2023-09-12T00:43:17.575Z,12.07
2023-09-12T00:46:24.035Z,14.05
2023-09-12T00:49:29.273Z,18.15
2023-09-12T00:52:34.480Z,16.15
2023-09-12T00:55:45.217Z,14.07
2023-09-12T00:58:52.230Z,18.95
2023-09-12T01:01:56.499Z,11.40
2023-09-12T01:05:00.448Z,18.45
2023-09-12T01:08:04.835Z,14.32
2023-09-12T01:11:09.739Z,18.83
2023-09-12T01:14:13.976Z,13.85
2023-09-12T01:17:18.450Z,17.25
2023-09-12T01:20:28.669Z,14.50
2023-09-12T01:24:14.403Z,15.75
2023-09-12T01:27:36.100Z,14.77
2023-09-12T01:30:43.200Z,12.88
2023-09-12T01:33:47.230Z,11.55
2023-09-12T01:36:51.096Z,12.48
2023-09-12T01:39:55.168Z,17.60
2023-09-12T01:43:02.543Z,17.95
2023-09-12T01:46:06.993Z,16.90
2023-09-12T01:49:12.835Z,16.17
2023-09-12T01:52:17.813Z,15.02
2023-09-12T01:55:23.345Z,15.63
2023-09-12T01:58:27.694Z,18.92
2023-09-12T02:01:31.737Z,16.70
2023-09-12T02:04:35.883Z,15.88
2023-09-12T02:07:42.359Z,15.45
2023-09-12T02:10:46.472Z,14.38
2023-09-12T02:13:50.226Z,15.82
2023-09-12T02:16:54.073Z,14.07
2023-09-12T02:19:58.129Z,14.70
2023-09-12T02:23:02.493Z,17.38
2023-09-12T02:26:06.683Z,13.68
2023-09-12T02:29:10.911Z,13.88
2023-09-12T02:32:15.178Z,17.83
2023-09-12T02:35:19.306Z,18.17
2023-09-12T02:38:23.691Z,14.60
2023-09-12T02:41:28.078Z,13.27
2023-09-12T02:44:32.173Z,15.68
2023-09-12T02:47:36.213Z,18.98
2023-09-12T02:50:40.150Z,13.38
2023-09-12T02:53:44.457Z,21.02
2023-09-12T02:56:48.657Z,15.23
2023-09-12T02:59:52.914Z,13.55
2023-09-12T03:02:56.824Z,14.48
2023-09-12T03:06:03.906Z,16.30
2023-09-12T03:09:08.108Z,15.52
2023-09-12T03:12:12.447Z,13.27
2023-09-12T03:15:16.410Z,19.83
2023-09-12T03:18:20.770Z,14.57
2023-09-12T03:21:24.996Z,16.65
2023-09-12T03:24:30.094Z,19.17
2023-09-12T03:27:34.410Z,15.55
2023-09-12T03:30:39.512Z,14.63
2023-09-12T03:33:49.050Z,16.25
2023-09-12T03:36:53.056Z,14.65
2023-09-12T03:39:56.744Z,15.43
2023-09-12T03:43:00.898Z,17.20
2023-09-12T03:46:05.294Z,18.02
2023-09-12T03:49:09.029Z,14.13
2023-09-12T03:52:12.886Z,15.93
2023-09-12T03:55:17.747Z,20.55
2023-09-12T03:58:21.842Z,15.65
2023-09-12T04:01:27.328Z,17.10
2023-09-12T04:04:32.258Z,16.48
2023-09-12T04:07:36.435Z,15.80
2023-09-12T04:10:40.440Z,13.75
2023-09-12T04:13:44.966Z,18.83
2023-09-12T04:16:49.428Z,20.17
2023-09-12T04:19:53.450Z,14.10
2023-09-12T04:22:57.568Z,16.83
2023-09-12T04:26:04.305Z,20.02
2023-09-12T04:29:08.504Z,22.45
2023-09-12T04:32:13.112Z,16.63
2023-09-12T04:35:20.314Z,16.35
2023-09-12T04:38:26.183Z,15.70
2023-09-12T04:41:30.921Z,23.75
2023-09-12T04:44:37.140Z,15.25
2023-09-12T04:47:41.313Z,15.02
2023-09-12T04:50:45.489Z,12.45
2023-09-12T04:53:52.754Z,16.23
2023-09-12T04:56:56.737Z,16.73
2023-09-12T05:00:00.493Z,18.40
2023-09-12T05:03:05.147Z,18.08
2023-09-12T05:06:09.372Z,15.48
2023-09-12T05:09:13.365Z,17.48
2023-09-12T05:12:17.806Z,13.65
2023-09-12T05:15:22.033Z,15.85
2023-09-12T05:18:26.353Z,18.63
2023-09-12T05:21:30.513Z,17.45
2023-09-12T05:24:34.561Z,18.23
2023-09-12T05:27:38.771Z,15.80
2023-09-12T05:30:44.090Z,17.45
2023-09-12T05:33:48.350Z,24.00
2023-09-12T05:36:52.379Z,27.13
2023-09-12T05:39:56.536Z,24.95
2023-09-12T05:43:00.874Z,18.52
2023-09-12T05:46:05.035Z,24.52
2023-09-12T05:49:09.189Z,17.23
2023-09-12T05:52:13.148Z,18.20
2023-09-12T05:55:18.661Z,17.63
2023-09-12T05:58:23.076Z,24.45
2023-09-12T06:01:27.279Z,18.23
2023-09-12T06:04:31.461Z,25.50
2023-09-12T06:07:36.301Z,19.92
2023-09-12T06:10:40.481Z,23.58
2023-09-12T06:13:44.890Z,24.85
2023-09-12T06:16:49.272Z,23.33
2023-09-12T06:19:55.145Z,19.27
2023-09-12T06:23:00.577Z,19.23
2023-09-12T06:26:04.649Z,21.42
2023-09-12T06:29:09.006Z,20.65
2023-09-12T06:32:13.393Z,25.15
2023-09-12T06:35:17.848Z,17.75
2023-09-12T06:38:23.801Z,20.65
2023-09-12T06:41:28.293Z,22.42
2023-09-12T06:44:32.650Z,15.80
2023-09-12T06:47:36.662Z,19.48
2023-09-12T06:50:40.715Z,17.67
2023-09-12T06:53:45.114Z,23.42
2023-09-12T06:56:49.639Z,23.13
2023-09-12T06:59:53.715Z,18.05
2023-09-12T07:02:58.444Z,21.88
2023-09-12T07:06:04.119Z,20.33
2023-09-12T07:09:09.804Z,21.23
2023-09-12T07:12:14.003Z,19.50
2023-09-12T07:15:18.338Z,17.08
2023-09-12T07:18:22.868Z,22.92
2023-09-12T07:21:27.309Z,17.33
2023-09-12T07:24:31.888Z,18.90
2023-09-12T07:27:36.086Z,23.95
2023-09-12T07:30:40.330Z,24.88
2023-09-12T07:33:44.524Z,28.85
2023-09-12T07:36:49.118Z,23.45
2023-09-12T07:39:53.530Z,22.40
2023-09-12T07:42:57.622Z,20.42
2023-09-12T07:46:01.867Z,25.55
2023-09-12T07:49:05.873Z,30.75
2023-09-12T07:52:10.280Z,23.92
2023-09-12T07:55:14.178Z,25.65
2023-09-12T07:58:22.747Z,21.05
2023-09-12T08:01:28.414Z,18.88
2023-09-12T08:04:32.642Z,24.15
2023-09-12T08:07:37.289Z,26.30
2023-09-12T08:10:41.835Z,24.35
2023-09-12T08:13:50.780Z,18.98
2023-09-12T08:16:55.235Z,30.05
2023-09-12T08:19:59.530Z,38.58
2023-09-12T08:23:03.891Z,21.23
2023-09-12T08:26:08.825Z,23.45
2023-09-12T08:29:12.791Z,21.23
2023-09-12T08:32:17.055Z,23.73
2023-09-12T08:35:21.039Z,22.38
2023-09-12T08:38:24.842Z,23.13
2023-09-12T08:41:28.894Z,28.02
2023-09-12T08:44:33.122Z,26.92
2023-09-12T08:47:40.140Z,20.02
2023-09-12T08:50:47.548Z,24.83
2023-09-12T08:53:52.467Z,21.38
2023-09-12T08:56:56.991Z,28.50
2023-09-12T09:00:11.480Z,25.33
2023-09-12T09:03:15.758Z,26.85
2023-09-12T09:06:21.948Z,25.42
2023-09-12T09:09:28.766Z,24.20
2023-09-12T09:12:37.040Z,21.38
2023-09-12T09:15:43.265Z,18.85
2023-09-12T09:18:59.300Z,18.17
2023-09-12T09:22:07.447Z,21.80
2023-09-12T09:25:13.495Z,24.50
2023-09-12T09:28:19.567Z,23.52
2023-09-12T09:31:24.070Z,19.92
2023-09-12T09:34:30.440Z,23.20
2023-09-12T09:37:34.637Z,19.60
2023-09-12T09:40:38.808Z,24.13
2023-09-12T09:43:44.764Z,21.17
2023-09-12T09:46:55.628Z,30.20
2023-09-12T09:50:00.564Z,26.30
2023-09-12T09:53:06.494Z,25.20
2023-09-12T09:56:16.449Z,28.08
2023-09-12T09:59:28.111Z,21.80
2023-09-12T10:02:33.019Z,20.88
2023-09-12T10:05:38.635Z,24.25
2023-09-12T10:08:44.636Z,29.85
2023-09-12T10:11:49.329Z,28.63
2023-09-12T10:14:53.736Z,24.00
2023-09-12T10:18:00.004Z,18.15
2023-09-12T10:21:12.853Z,21.13
2023-09-12T10:24:17.401Z,23.27
2023-09-12T10:27:22.948Z,25.80
2023-09-12T10:30:27.834Z,24.40
2023-09-12T10:33:32.680Z,33.10
2023-09-12T10:36:41.955Z,25.67
2023-09-12T10:39:46.782Z,27.08
2023-09-12T10:42:52.326Z,24.48
2023-09-12T10:45:57.799Z,22.13
2023-09-12T10:49:01.911Z,24.25
2023-09-12T10:52:06.716Z,24.63
2023-09-12T10:55:18.391Z,24.73
2023-09-12T10:58:22.721Z,18.85
2023-09-12T11:01:27.543Z,20.35
2023-09-12T11:04:34.629Z,28.27
2023-09-12T11:07:41.791Z,22.27
2023-09-12T11:10:46.085Z,23.05
2023-09-12T11:14:07.008Z,25.55
2023-09-12T11:17:11.809Z,29.88
2023-09-12T11:20:18.192Z,24.75
2023-09-12T11:23:22.782Z,20.80
2023-09-12T11:26:27.036Z,24.20
2023-09-12T11:29:39.590Z,21.38
2023-09-12T11:32:47.142Z,18.73
2023-09-12T11:35:54.045Z,22.55
2023-09-12T11:39:03.448Z,24.23
2023-09-12T11:42:13.975Z,25.70
2023-09-12T11:45:20.508Z,28.63
2023-09-12T11:48:24.788Z,24.10
2023-09-12T11:51:29.296Z,23.20
2023-09-12T11:54:33.545Z,23.17
2023-09-12T11:57:37.569Z,22.98
2023-09-12T12:00:56.452Z,24.67
2023-09-12T12:04:00.406Z,27.30
2023-09-12T12:07:05.643Z,26.33
2023-09-12T12:10:09.562Z,22.00
2023-09-12T12:13:18.163Z,20.42
2023-09-12T12:16:23.942Z,26.13
2023-09-12T12:19:29.595Z,22.10
2023-09-12T12:22:33.774Z,24.08
2023-09-12T12:25:38.084Z,23.50
2023-09-12T12:28:42.686Z,25.23
2023-09-12T12:31:47.192Z,26.92
2023-09-12T12:35:40.219Z,22.85
2023-09-12T12:38:16.326Z,22.83
2023-09-12T12:41:35.626Z,23.08
2023-09-12T12:44:45.500Z,19.67
2023-09-12T12:47:59.027Z,20.60
2023-09-12T12:51:17.994Z,23.92
2023-09-12T12:54:23.546Z,17.83
2023-09-12T12:57:28.177Z,25.63
2023-09-12T13:00:33.021Z,23.42
2023-09-12T13:03:37.178Z,22.73
2023-09-12T13:06:42.139Z,22.13
2023-09-12T13:09:49.161Z,15.30
2023-09-12T13:12:53.423Z,16.95
2023-09-12T13:15:57.806Z,21.42
2023-09-12T13:19:02.350Z,21.42
2023-09-12T13:22:06.630Z,21.48
2023-09-12T13:25:11.454Z,16.63
2023-09-12T13:28:15.649Z,16.33
2023-09-12T13:31:19.952Z,19.45
2023-09-12T13:34:24.110Z,21.92
2023-09-12T13:37:28.634Z,15.30
2023-09-12T13:40:33.055Z,16.42
2023-09-12T13:43:37.365Z,25.00
2023-09-12T13:46:45.237Z,23.98
2023-09-12T13:49:50.264Z,18.77
2023-09-12T13:52:57.062Z,24.80
2023-09-12T13:56:27.756Z,20.48
2023-09-12T13:59:34.401Z,18.90
2023-09-12T14:02:42.670Z,20.88
2023-09-12T14:05:46.941Z,22.98
2023-09-12T14:08:53.260Z,18.40
2023-09-12T14:11:57.872Z,17.70
2023-09-12T14:15:08.737Z,17.60
2023-09-12T14:18:13.796Z,17.92
2023-09-12T14:21:19.584Z,16.58
2023-09-12T14:24:24.336Z,16.80
2023-09-12T14:27:30.776Z,21.98
2023-09-12T14:30:37.133Z,21.67
2023-09-12T14:33:41.883Z,25.23
2023-09-12T14:36:49.174Z,24.52
2023-09-12T14:39:53.714Z,22.77
2023-09-12T14:42:57.919Z,19.38
2023-09-12T14:46:02.414Z,18.80
2023-09-12T14:49:06.920Z,14.63
2023-09-12T14:52:20.126Z,25.13
2023-09-12T14:55:28.263Z,24.02
2023-09-12T14:58:32.471Z,23.77
2023-09-12T15:01:38.455Z,26.42
2023-09-12T15:04:42.770Z,18.10
2023-09-12T15:07:47.105Z,24.52
2023-09-12T15:10:51.154Z,22.95
2023-09-12T15:13:55.289Z,19.55
2023-09-12T15:17:01.264Z,17.73
2023-09-12T15:20:09.001Z,22.35
2023-09-12T15:23:13.146Z,27.25
2023-09-12T15:26:17.219Z,25.20
2023-09-12T15:29:21.837Z,23.77
2023-09-12T15:32:25.926Z,21.00
2023-09-12T15:35:29.945Z,19.80
2023-09-12T15:38:33.892Z,21.55
2023-09-12T15:41:38.210Z,18.95
2023-09-12T15:44:58.131Z,24.42
2023-09-12T15:48:05.548Z,24.73
2023-09-12T15:51:09.908Z,24.20
2023-09-12T15:54:13.799Z,21.73
2023-09-12T15:57:17.904Z,19.67
2023-09-12T16:00:22.066Z,22.52
2023-09-12T16:03:26.756Z,17.67
2023-09-12T16:06:32.288Z,22.00
2023-09-12T16:09:36.641Z,22.45
2023-09-12T16:12:41.419Z,19.60
2023-09-12T16:15:45.495Z,18.52
2023-09-12T16:18:49.848Z,21.00
2023-09-12T16:21:54.021Z,17.98
2023-09-12T16:24:58.585Z,18.02
2023-09-12T16:28:02.933Z,26.77
2023-09-12T16:31:07.279Z,15.90
2023-09-12T16:34:11.451Z,18.42
2023-09-12T16:37:15.756Z,18.27
2023-09-12T16:40:20.168Z,18.02
2023-09-12T16:43:24.590Z,22.85
2023-09-12T16:46:28.962Z,19.98
2023-09-12T16:49:34.598Z,21.05
2023-09-12T16:52:38.916Z,25.90
2023-09-12T16:55:43.776Z,16.27
2023-09-12T16:58:48.046Z,18.27
2023-09-12T17:01:52.465Z,25.63
2023-09-12T17:04:56.480Z,21.35
2023-09-12T17:08:00.549Z,22.73
2023-09-12T17:11:04.648Z,19.95
2023-09-12T17:14:08.776Z,20.23
2023-09-12T17:17:12.830Z,22.02
2023-09-12T17:20:16.838Z,23.58
2023-09-12T17:23:21.227Z,23.50
2023-09-12T17:26:25.612Z,19.85
2023-09-12T17:29:30.413Z,23.80
2023-09-12T17:32:34.442Z,17.85
2023-09-12T17:35:38.572Z,23.90
2023-09-12T17:38:43.539Z,29.75
2023-09-12T17:41:47.644Z,19.00
2023-09-12T17:44:51.703Z,20.38
2023-09-12T17:47:56.349Z,17.95
2023-09-12T17:51:00.003Z,19.63
2023-09-12T17:54:04.089Z,22.95
2023-09-12T17:57:08.895Z,18.75
2023-09-12T18:00:13.324Z,21.48
2023-09-12T18:03:17.201Z,23.05
2023-09-12T18:06:22.094Z,20.35
2023-09-12T18:09:26.502Z,23.88
2023-09-12T18:12:31.579Z,20.67
2023-09-12T18:15:35.719Z,20.00
2023-09-12T18:18:39.807Z,22.98
2023-09-12T18:21:43.842Z,20.80
2023-09-12T18:24:48.272Z,22.20
2023-09-12T18:27:52.441Z,20.38
2023-09-12T18:30:56.912Z,20.77
2023-09-12T18:34:01.081Z,23.10
2023-09-12T18:37:06.165Z,25.13
2023-09-12T18:40:10.835Z,23.58
2023-09-12T18:43:17.033Z,27.77
2023-09-12T18:46:22.048Z,22.23
2023-09-12T18:49:26.502Z,22.85
2023-09-12T18:52:40.366Z,27.35
2023-09-12T18:55:52.935Z,22.17
2023-09-12T18:58:56.924Z,20.83
2023-09-12T19:02:00.978Z,32.13
2023-09-12T19:05:05.799Z,24.33
2023-09-12T19:08:10.919Z,24.75
2023-09-12T19:11:17.060Z,22.35
2023-09-12T19:14:21.136Z,33.92
2023-09-12T19:17:25.542Z,20.50
2023-09-12T19:20:29.809Z,23.52
2023-09-12T19:23:34.266Z,27.02
2023-09-12T19:26:38.471Z,22.77
2023-09-12T19:29:50.657Z,25.00
2023-09-12T19:32:58.536Z,21.33
2023-09-12T19:36:02.668Z,21.58
2023-09-12T19:39:06.952Z,23.35
2023-09-12T19:42:11.221Z,29.67
2023-09-12T19:45:15.407Z,19.95
2023-09-12T19:48:19.797Z,19.20
2023-09-12T19:51:23.945Z,18.80
2023-09-12T19:54:28.475Z,16.02
2023-09-12T19:57:32.289Z,16.48
2023-09-12T20:00:36.409Z,20.48
2023-09-12T20:03:41.082Z,13.02
2023-09-12T20:06:45.631Z,18.50
2023-09-12T20:09:49.863Z,13.98
2023-09-12T20:12:53.927Z,17.75
2023-09-12T20:15:58.191Z,14.73
2023-09-12T20:19:06.480Z,11.80
2023-09-12T20:22:11.703Z,10.93
2023-09-12T20:25:15.872Z,10.32
2023-09-12T20:28:20.991Z,13.15
2023-09-12T20:31:24.713Z,14.27
2023-09-12T20:34:31.903Z,7.88
2023-09-12T20:37:36.002Z,13.60
2023-09-12T20:40:40.308Z,9.55
2023-09-12T20:43:45.026Z,10.50
2023-09-12T20:46:49.644Z,10.20
2023-09-12T20:49:57.510Z,11.55
2023-09-12T20:53:07.700Z,12.23
2023-09-12T20:56:14.418Z,7.57
2023-09-12T20:59:18.342Z,11.13
2023-09-12T21:02:22.544Z,9.02
2023-09-12T21:05:28.058Z,11.48
2023-09-12T21:08:32.646Z,7.32
2023-09-12T21:11:36.892Z,7.78
2023-09-12T21:14:41.037Z,12.50
2023-09-12T21:17:45.516Z,6.95
2023-09-12T21:20:49.421Z,8.02
2023-09-12T21:23:53.315Z,7.13
2023-09-12T21:26:57.459Z,15.45
2023-09-12T21:30:04.119Z,8.60
2023-09-12T21:33:08.072Z,12.95
2023-09-12T21:36:12.274Z,9.82
2023-09-12T21:39:16.772Z,14.77
2023-09-12T21:42:21.129Z,8.35
2023-09-12T21:45:25.350Z,12.85
2023-09-12T21:48:29.383Z,8.88
2023-09-12T21:51:33.681Z,8.10
2023-09-12T21:54:38.271Z,6.47
2023-09-12T21:57:42.603Z,7.90
2023-09-12T22:00:46.682Z,8.93
2023-09-12T22:03:50.853Z,12.13
2023-09-12T22:06:55.313Z,7.25
2023-09-12T22:10:01.634Z,7.28
2023-09-12T22:13:06.842Z,11.13
2023-09-12T22:16:11.335Z,8.45
2023-09-12T22:19:15.282Z,8.15
2023-09-12T22:22:19.482Z,9.13
2023-09-12T22:25:23.689Z,5.30
2023-09-12T22:28:27.647Z,8.25
2023-09-12T22:31:32.795Z,9.65
2023-09-12T22:34:38.189Z,8.75
2023-09-12T22:37:42.509Z,6.40
2023-09-12T22:40:46.812Z,7.35
2023-09-12T22:43:51.065Z,7.68
2023-09-12T22:46:55.604Z,5.65
2023-09-12T22:50:00.158Z,8.40
2023-09-12T22:53:05.284Z,7.03
2023-09-12T22:56:09.223Z,8.25
2023-09-12T22:59:14.431Z,6.25
2023-09-12T23:02:18.513Z,8.07
2023-09-12T23:05:22.872Z,8.50
2023-09-12T23:08:27.072Z,6.88
2023-09-12T23:11:31.353Z,6.60
2023-09-12T23:14:35.543Z,6.70
2023-09-12T23:17:39.611Z,6.35
2023-09-12T23:20:46.218Z,6.90
2023-09-12T23:23:49.986Z,5.47
2023-09-12T23:26:53.902Z,5.93
2023-09-12T23:29:58.919Z,7.10
2023-09-12T23:33:04.142Z,7.55
2023-09-12T23:36:10.479Z,9.13
2023-09-12T23:39:16.087Z,8.05
2023-09-12T23:42:21.099Z,6.53
2023-09-12T23:45:25.091Z,8.73
2023-09-12T23:48:29.134Z,9.98
2023-09-12T23:51:33.392Z,23.77
2023-09-12T23:54:37.448Z,15.30
2023-09-12T23:57:41.984Z,18.60
